createdAt,value
2019-01-26T00:00:54.963Z,10.10
2019-01-26T00:01:54.956Z,5.90
2019-01-26T00:02:54.945Z,7.50
2019-01-26T00:03:54.962Z,7.20
2019-01-26T00:04:54.923Z,5.90
2019-01-26T00:05:54.912Z,6.20
2019-01-26T00:06:54.903Z,6.80
2019-01-26T00:07:54.888Z,8.50
2019-01-26T00:08:54.906Z,8.90
2019-01-26T00:09:54.888Z,8.70
2019-01-26T00:10:54.857Z,11.30
2019-01-26T00:11:54.847Z,9.50
2019-01-26T00:12:54.833Z,5.20
2019-01-26T00:13:54.846Z,5.10
2019-01-26T00:14:54.813Z,5.50
2019-01-26T00:15:54.812Z,7.80
2019-01-26T00:16:54.790Z,7.00
2019-01-26T00:17:54.780Z,5.10
2019-01-26T00:18:54.791Z,6.90
2019-01-26T00:19:54.756Z,4.40
2019-01-26T00:20:54.746Z,6.20
2019-01-26T00:21:54.755Z,5.30
2019-01-26T00:22:54.725Z,9.50
2019-01-26T00:23:54.737Z,5.30
2019-01-26T00:24:54.701Z,5.60
2019-01-26T00:25:54.691Z,9.40
2019-01-26T00:26:54.698Z,4.50
2019-01-26T00:27:54.697Z,4.50
2019-01-26T00:28:54.680Z,13.20
2019-01-26T00:29:54.647Z,5.70
2019-01-26T00:30:54.636Z,5.50
2019-01-26T00:31:54.638Z,8.40
2019-01-26T00:32:54.616Z,5.10
2019-01-26T00:33:54.650Z,5.10
2019-01-26T00:34:54.595Z,13.40
2019-01-26T00:35:54.584Z,7.60
2019-01-26T00:36:54.569Z,19.90
2019-01-26T00:37:54.560Z,5.40
2019-01-26T00:38:54.575Z,5.00
2019-01-26T00:39:54.569Z,17.00
2019-01-26T00:40:54.529Z,24.90
2019-01-26T00:41:54.519Z,4.90
2019-01-26T00:42:54.507Z,24.30
2019-01-26T00:43:54.517Z,12.40
2019-01-26T00:44:54.483Z,6.50
2019-01-26T00:45:54.483Z,5.30
2019-01-26T00:46:54.461Z,4.30
2019-01-26T00:47:54.451Z,4.90
2019-01-26T00:48:54.462Z,13.70
2019-01-26T00:49:54.429Z,4.60
2019-01-26T00:50:54.437Z,5.50
2019-01-26T00:51:54.409Z,6.20
2019-01-26T00:52:54.397Z,6.30
2019-01-26T00:53:54.412Z,6.10
2019-01-26T00:54:54.374Z,16.30
2019-01-26T00:55:54.362Z,8.20
2019-01-26T00:56:54.355Z,28.40
2019-01-26T00:57:54.360Z,5.50
2019-01-26T00:58:54.388Z,5.00
2019-01-26T00:59:54.319Z,35.50
2019-01-26T01:00:54.309Z,6.60
2019-01-26T01:01:54.297Z,4.50
2019-01-26T01:02:54.286Z,7.70
2019-01-26T01:03:54.313Z,18.40
2019-01-26T01:04:54.264Z,7.30
2019-01-26T01:05:54.255Z,49.60
2019-01-26T01:06:54.254Z,5.80
2019-01-26T01:07:54.285Z,5.90
2019-01-26T01:08:54.249Z,12.50
2019-01-26T01:09:54.218Z,13.50
2019-01-26T01:10:54.202Z,36.40
2019-01-26T01:11:54.203Z,18.90
2019-01-26T01:12:54.178Z,27.40
2019-01-26T01:13:54.191Z,5.00
2019-01-26T01:14:54.158Z,22.80
2019-01-26T01:15:54.155Z,25.20
2019-01-26T01:16:54.136Z,25.90
2019-01-26T01:17:54.157Z,5.70
2019-01-26T01:18:54.215Z,30.20
2019-01-26T01:19:54.103Z,29.00
2019-01-26T01:20:54.168Z,24.70
2019-01-26T01:21:54.126Z,6.90
2019-01-26T01:22:54.072Z,65.60
2019-01-26T01:23:54.078Z,44.60
2019-01-26T01:24:54.074Z,33.30
2019-01-26T01:25:54.038Z,8.40
2019-01-26T01:26:54.033Z,91.10
2019-01-26T01:27:54.017Z,46.60
2019-01-26T01:28:54.009Z,21.90
2019-01-26T01:29:54.051Z,6.80
2019-01-26T01:30:53.990Z,29.20
2019-01-26T01:31:53.974Z,7.90
2019-01-26T01:32:53.962Z,25.30
2019-01-26T01:33:53.955Z,18.90
2019-01-26T01:34:53.996Z,5.30
2019-01-26T01:35:53.939Z,56.70
2019-01-26T01:36:53.921Z,61.30
2019-01-26T01:37:53.910Z,68.30
2019-01-26T01:38:53.898Z,35.60
2019-01-26T01:39:53.911Z,55.70
2019-01-26T01:40:53.877Z,50.90
2019-01-26T01:41:53.870Z,17.00
2019-01-26T01:42:53.857Z,6.90
2019-01-26T01:43:53.844Z,8.40
2019-01-26T01:44:53.862Z,8.80
2019-01-26T01:45:53.823Z,10.50
2019-01-26T01:46:53.813Z,8.20
2019-01-26T01:47:53.816Z,6.30
2019-01-26T01:48:53.790Z,46.80
2019-01-26T01:49:53.803Z,16.50
2019-01-26T01:50:53.772Z,21.10
2019-01-26T01:51:53.759Z,48.40
2019-01-26T01:52:53.748Z,78.20
2019-01-26T01:53:53.773Z,21.40
2019-01-26T01:54:53.757Z,57.00
2019-01-26T01:55:53.723Z,5.80
2019-01-26T01:56:53.704Z,52.20
2019-01-26T01:57:53.694Z,6.50
2019-01-26T01:58:53.684Z,197.00
2019-01-26T01:59:53.695Z,7.90
2019-01-26T02:00:53.672Z,60.50
2019-01-26T02:01:53.650Z,71.10
2019-01-26T02:02:53.641Z,11.40
2019-01-26T02:03:53.629Z,11.30
2019-01-26T02:04:53.646Z,7.10
2019-01-26T02:05:53.607Z,45.70
2019-01-26T02:06:53.599Z,29.10
2019-01-26T02:07:53.597Z,26.40
2019-01-26T02:08:53.576Z,26.00
2019-01-26T02:09:53.590Z,41.90
2019-01-26T02:10:53.554Z,20.80
2019-01-26T02:11:53.543Z,8.10
2019-01-26T02:12:53.533Z,12.90
2019-01-26T02:13:53.538Z,94.40
2019-01-26T02:14:53.533Z,109.50
2019-01-26T02:15:53.504Z,37.10
2019-01-26T02:16:53.496Z,37.20
2019-01-26T02:17:53.477Z,12.70
2019-01-26T02:18:53.469Z,56.10
2019-01-26T02:19:53.497Z,224.80
2019-01-26T02:20:53.454Z,69.00
2019-01-26T02:21:53.441Z,106.90
2019-01-26T02:22:53.427Z,42.60
2019-01-26T02:23:53.416Z,127.30
2019-01-26T02:24:53.427Z,99.00
2019-01-26T02:25:53.421Z,20.40
2019-01-26T02:26:53.405Z,110.40
2019-01-26T02:27:53.370Z,39.60
2019-01-26T02:28:53.360Z,63.90
2019-01-26T02:29:53.373Z,152.10
2019-01-26T02:30:53.339Z,14.60
2019-01-26T02:31:53.332Z,152.90
2019-01-26T02:32:54.646Z,70.90
2019-01-26T02:33:53.309Z,82.10
2019-01-26T02:34:53.321Z,116.30
2019-01-26T02:35:53.291Z,50.70
2019-01-26T02:36:53.277Z,85.20
2019-01-26T02:37:53.263Z,50.30
2019-01-26T02:38:53.269Z,169.00
2019-01-26T02:39:53.272Z,23.70
2019-01-26T02:40:53.231Z,105.80
2019-01-26T02:41:53.220Z,132.30
2019-01-26T02:42:53.211Z,21.70
2019-01-26T02:43:53.200Z,148.60
2019-01-26T02:44:53.227Z,171.80
2019-01-26T02:45:53.177Z,139.40
2019-01-26T02:46:57.957Z,125.30
2019-01-26T02:47:54.156Z,97.00
2019-01-26T02:48:53.146Z,36.80
2019-01-26T02:49:53.158Z,26.80
2019-01-26T02:50:53.138Z,149.20
2019-01-26T02:51:53.116Z,102.20
2019-01-26T02:52:53.104Z,22.10
2019-01-26T02:53:53.091Z,85.90
2019-01-26T02:54:53.124Z,94.70
2019-01-26T02:55:53.072Z,29.70
2019-01-26T02:56:53.081Z,80.30
2019-01-26T02:57:53.048Z,64.10
2019-01-26T02:58:53.037Z,125.20
2019-01-26T02:59:53.027Z,113.60
2019-01-26T03:00:53.040Z,71.70
2019-01-26T03:01:53.029Z,96.10
2019-01-26T03:02:53.005Z,133.60
2019-01-26T03:03:52.982Z,60.70
2019-01-26T03:04:52.988Z,132.60
2019-01-26T03:05:52.985Z,97.90
2019-01-26T03:06:52.951Z,63.20
2019-01-26T03:07:52.943Z,34.40
2019-01-26T03:08:52.942Z,26.40
2019-01-26T03:09:52.924Z,39.80
2019-01-26T03:10:52.931Z,39.20
2019-01-26T03:11:52.903Z,18.20
2019-01-26T03:12:52.885Z,22.20
2019-01-26T03:13:52.878Z,18.30
2019-01-26T03:14:52.878Z,32.70
2019-01-26T03:15:52.875Z,46.70
2019-01-26T03:16:52.846Z,80.90
2019-01-26T03:17:52.839Z,105.90
2019-01-26T03:18:52.820Z,73.20
2019-01-26T03:19:52.816Z,24.30
2019-01-26T03:20:52.844Z,29.20
2019-01-26T03:21:52.793Z,82.60
2019-01-26T03:22:52.779Z,65.80
2019-01-26T03:23:52.775Z,131.00
2019-01-26T03:24:52.759Z,32.60
2019-01-26T03:25:52.775Z,38.60
2019-01-26T03:26:52.746Z,71.90
2019-01-26T03:27:52.723Z,136.20
2019-01-26T03:28:52.716Z,133.20
2019-01-26T03:29:52.704Z,9.10
2019-01-26T03:30:52.726Z,142.70
2019-01-26T03:31:52.683Z,42.00
2019-01-26T03:32:52.696Z,18.70
2019-01-26T03:33:52.659Z,76.30
2019-01-26T03:34:52.652Z,126.70
2019-01-26T03:35:52.669Z,67.30
2019-01-26T03:36:52.637Z,159.80
2019-01-26T03:37:52.618Z,202.40
2019-01-26T03:38:52.614Z,86.30
2019-01-26T03:39:52.611Z,71.60
2019-01-26T03:40:52.612Z,63.80
2019-01-26T03:41:52.572Z,81.00
2019-01-26T03:42:52.564Z,305.80
2019-01-26T03:43:52.552Z,128.30
2019-01-26T03:44:52.544Z,219.50
2019-01-26T03:45:52.558Z,172.30
2019-01-26T03:46:52.519Z,252.10
2019-01-26T03:47:52.516Z,132.10
2019-01-26T03:48:52.500Z,365.50
2019-01-26T03:49:53.709Z,157.70
2019-01-26T03:50:52.499Z,254.80
2019-01-26T03:51:52.467Z,232.10
2019-01-26T03:52:52.457Z,404.70
2019-01-26T03:53:52.447Z,142.40
2019-01-26T03:54:52.432Z,480.30
2019-01-26T03:55:52.445Z,300.30
2019-01-26T03:56:52.411Z,135.50
2019-01-26T03:57:52.421Z,214.80
2019-01-26T03:58:52.404Z,119.40
2019-01-26T03:59:52.380Z,46.00
2019-01-26T04:00:52.391Z,290.00
2019-01-26T04:01:52.369Z,397.20
2019-01-26T04:02:52.353Z,358.00
2019-01-26T04:03:52.356Z,391.40
2019-01-26T04:04:52.326Z,611.00
2019-01-26T04:05:52.337Z,321.70
2019-01-26T04:06:52.306Z,515.30
2019-01-26T04:07:52.350Z,327.90
2019-01-26T04:08:52.280Z,796.10
2019-01-26T04:09:52.334Z,400.30
2019-01-26T04:10:52.295Z,279.50
2019-01-26T04:11:52.255Z,247.10
2019-01-26T04:12:52.245Z,344.10
2019-01-26T04:13:52.228Z,363.00
2019-01-26T04:14:52.217Z,284.20
2019-01-26T04:15:52.231Z,588.80
2019-01-26T04:16:52.199Z,353.60
2019-01-26T04:17:52.183Z,295.40
2019-01-26T04:18:52.172Z,556.50
2019-01-26T04:19:52.161Z,347.10
2019-01-26T04:20:52.175Z,378.50
2019-01-26T04:21:52.142Z,538.20
2019-01-26T04:22:52.147Z,310.80
2019-01-26T04:23:52.115Z,294.20
2019-01-26T04:24:52.107Z,54.30
2019-01-26T04:25:52.142Z,292.40
2019-01-26T04:26:52.092Z,269.40
2019-01-26T04:27:52.079Z,280.80
2019-01-26T04:28:52.068Z,432.90
2019-01-26T04:29:52.055Z,419.30
2019-01-26T04:30:52.080Z,502.60
2019-01-26T04:31:52.045Z,343.10
2019-01-26T04:32:52.035Z,507.60
2019-01-26T04:33:52.007Z,315.70
2019-01-26T04:34:52.007Z,175.50
2019-01-26T04:35:51.986Z,478.80
2019-01-26T04:36:52.001Z,383.10
2019-01-26T04:37:51.968Z,218.10
2019-01-26T04:38:51.955Z,65.00
2019-01-26T04:39:51.943Z,190.90
2019-01-26T04:40:51.932Z,255.40
2019-01-26T04:41:51.961Z,224.10
2019-01-26T04:42:51.911Z,319.50
2019-01-26T04:43:51.899Z,522.80
2019-01-26T04:44:51.889Z,628.50
2019-01-26T04:45:51.883Z,338.00
2019-01-26T04:46:51.893Z,433.00
2019-01-26T04:47:51.868Z,518.20
2019-01-26T04:48:51.847Z,345.50
2019-01-26T04:49:51.835Z,518.40
2019-01-26T04:50:51.824Z,310.90
2019-01-26T04:51:51.835Z,174.50
2019-01-26T04:52:51.804Z,377.70
2019-01-26T04:53:51.811Z,391.20
2019-01-26T04:54:51.781Z,367.80
2019-01-26T04:55:51.770Z,463.40
2019-01-26T04:56:51.784Z,361.30
2019-01-26T04:57:51.750Z,355.30
2019-01-26T04:58:51.740Z,379.90
2019-01-26T04:59:51.778Z,307.80
2019-01-26T05:00:51.720Z,294.70
2019-01-26T05:01:51.729Z,278.40
2019-01-26T05:02:51.696Z,335.20
2019-01-26T05:03:51.684Z,437.60
2019-01-26T05:04:51.696Z,325.10
2019-01-26T05:05:51.668Z,173.90
2019-01-26T05:06:51.675Z,138.10
2019-01-26T05:07:51.652Z,523.50
2019-01-26T05:08:51.628Z,361.00
2019-01-26T05:09:51.618Z,122.10
2019-01-26T05:10:51.613Z,323.70
2019-01-26T05:11:51.816Z,298.10
2019-01-26T05:12:51.611Z,207.90
2019-01-26T05:13:51.575Z,155.50
2019-01-26T05:14:51.564Z,368.10
2019-01-26T05:15:51.552Z,320.30
2019-01-26T05:16:51.542Z,484.60
2019-01-26T05:17:51.560Z,251.20
2019-01-26T05:18:51.544Z,344.20
2019-01-26T05:19:51.512Z,336.60
2019-01-26T05:20:51.497Z,500.70
2019-01-26T05:21:51.487Z,307.90
2019-01-26T05:22:51.498Z,405.50
2019-01-26T05:23:51.464Z,292.60
2019-01-26T05:24:51.466Z,353.00
2019-01-26T05:25:51.442Z,374.60
2019-01-26T05:26:51.431Z,423.10
2019-01-26T05:27:51.444Z,437.80
2019-01-26T05:28:51.409Z,404.50
2019-01-26T05:29:51.401Z,171.10
2019-01-26T05:30:51.394Z,268.80
2019-01-26T05:31:51.378Z,290.00
2019-01-26T05:32:51.390Z,461.20
2019-01-26T05:33:51.356Z,399.30
2019-01-26T05:34:51.347Z,579.80
2019-01-26T05:35:51.338Z,349.80
2019-01-26T05:36:51.334Z,222.50
2019-01-26T05:37:51.336Z,432.30
2019-01-26T05:38:51.300Z,429.30
2019-01-26T05:39:51.293Z,494.70
2019-01-26T05:40:51.283Z,276.80
2019-01-26T05:41:51.269Z,606.30
2019-01-26T05:42:51.299Z,360.60
2019-01-26T05:43:51.246Z,317.20
2019-01-26T05:44:51.236Z,419.50
2019-01-26T05:45:51.225Z,324.30
2019-01-26T05:46:51.213Z,480.40
2019-01-26T05:47:51.227Z,320.60
2019-01-26T05:48:51.197Z,372.90
2019-01-26T05:49:51.199Z,369.60
2019-01-26T05:50:51.170Z,383.90
2019-01-26T05:51:51.161Z,536.30
2019-01-26T05:52:51.174Z,322.70
2019-01-26T05:53:51.146Z,319.30
2019-01-26T05:54:51.127Z,389.20
2019-01-26T05:55:51.127Z,514.00
2019-01-26T05:56:51.104Z,359.20
2019-01-26T05:57:51.118Z,304.30
2019-01-26T05:58:51.082Z,250.20
2019-01-26T05:59:51.072Z,326.70
2019-01-26T06:00:51.064Z,455.90
2019-01-26T06:01:51.053Z,393.70
2019-01-26T06:02:51.062Z,412.70
2019-01-26T06:03:51.045Z,208.90
2019-01-26T06:04:51.030Z,282.40
2019-01-26T06:05:51.019Z,284.70
2019-01-26T06:06:50.998Z,429.40
2019-01-26T06:07:51.021Z,448.20
2019-01-26T06:08:50.974Z,372.70
2019-01-26T06:09:50.961Z,301.40
2019-01-26T06:10:50.972Z,521.30
2019-01-26T06:11:50.942Z,277.70
2019-01-26T06:12:50.957Z,192.40
2019-01-26T06:13:50.919Z,172.50
2019-01-26T06:14:50.910Z,278.90
2019-01-26T06:15:50.907Z,237.30
2019-01-26T06:16:50.888Z,227.30
2019-01-26T06:17:54.927Z,254.70
2019-01-26T06:18:50.865Z,219.70
2019-01-26T06:19:50.853Z,229.70
2019-01-26T06:20:50.843Z,267.10
2019-01-26T06:21:50.845Z,188.70
2019-01-26T06:22:50.843Z,237.20
2019-01-26T06:23:50.811Z,242.80
2019-01-26T06:24:50.799Z,237.50
2019-01-26T06:25:50.788Z,236.10
2019-01-26T06:26:50.775Z,246.70
2019-01-26T06:27:50.804Z,166.20
2019-01-26T06:28:50.755Z,206.60
2019-01-26T06:29:50.743Z,233.20
2019-01-26T06:30:50.733Z,161.80
2019-01-26T06:31:50.727Z,268.60
2019-01-26T06:32:50.737Z,238.30
2019-01-26T06:33:50.703Z,215.20
2019-01-26T06:34:50.690Z,197.80
2019-01-26T06:35:50.677Z,171.60
2019-01-26T06:36:50.667Z,180.60
2019-01-26T06:37:50.680Z,199.90
2019-01-26T06:38:50.644Z,180.60
2019-01-26T06:39:50.639Z,186.30
2019-01-26T06:40:50.622Z,225.50
2019-01-26T06:41:50.612Z,214.20
2019-01-26T06:42:50.622Z,167.50
2019-01-26T06:43:50.588Z,186.80
2019-01-26T06:44:50.577Z,141.00
2019-01-26T06:45:50.573Z,154.20
2019-01-26T06:46:50.557Z,215.30
2019-01-26T06:47:50.570Z,231.80
2019-01-26T06:48:50.533Z,219.80
2019-01-26T06:49:50.522Z,175.20
2019-01-26T06:50:50.511Z,184.30
2019-01-26T06:51:50.510Z,172.90
2019-01-26T06:52:50.549Z,196.80
2019-01-26T06:53:50.482Z,164.20
2019-01-26T06:54:50.488Z,147.40
2019-01-26T06:55:50.467Z,155.50
2019-01-26T06:56:50.447Z,158.20
2019-01-26T06:57:50.434Z,170.70
2019-01-26T06:58:50.448Z,119.00
2019-01-26T06:59:50.414Z,158.30
2019-01-26T07:00:50.410Z,143.00
2019-01-26T07:01:50.391Z,152.70
2019-01-26T07:02:50.382Z,160.20
2019-01-26T07:03:50.393Z,148.50
2019-01-26T07:04:50.359Z,133.10
2019-01-26T07:05:50.346Z,137.30
2019-01-26T07:06:50.342Z,119.80
2019-01-26T07:07:50.333Z,167.70
2019-01-26T07:08:50.338Z,105.90
2019-01-26T07:09:50.306Z,121.90
2019-01-26T07:10:50.292Z,137.60
2019-01-26T07:11:50.281Z,112.80
2019-01-26T07:12:50.269Z,136.10
2019-01-26T07:13:50.296Z,123.90
2019-01-26T07:14:50.258Z,111.70
2019-01-26T07:15:50.236Z,115.80
2019-01-26T07:16:50.226Z,118.00
2019-01-26T07:17:50.214Z,115.40
2019-01-26T07:18:50.228Z,109.80
2019-01-26T07:19:50.192Z,112.10
2019-01-26T07:20:50.189Z,124.40
2019-01-26T07:21:50.174Z,103.50
2019-01-26T07:22:50.159Z,130.10
2019-01-26T07:23:50.174Z,114.80
2019-01-26T07:24:50.137Z,118.30
2019-01-26T07:25:50.129Z,119.80
2019-01-26T07:26:50.129Z,105.50
2019-01-26T07:27:50.107Z,126.80
2019-01-26T07:28:50.117Z,127.80
2019-01-26T07:29:50.081Z,100.20
2019-01-26T07:30:50.071Z,122.60
2019-01-26T07:31:50.061Z,150.40
2019-01-26T07:32:50.062Z,117.30
2019-01-26T07:33:50.062Z,106.80
2019-01-26T07:34:50.027Z,114.30
2019-01-26T07:35:50.016Z,87.90
2019-01-26T07:36:50.012Z,89.10
2019-01-26T07:37:49.995Z,85.60
2019-01-26T07:38:50.022Z,102.10
2019-01-26T07:39:49.973Z,119.70
2019-01-26T07:40:49.963Z,93.10
2019-01-26T07:41:49.952Z,110.90
2019-01-26T07:42:49.940Z,95.50
2019-01-26T07:43:49.954Z,100.90
2019-01-26T07:44:49.939Z,110.20
2019-01-26T07:45:49.915Z,107.60
2019-01-26T07:46:49.912Z,112.30
2019-01-26T07:47:49.884Z,107.10
2019-01-26T07:48:49.896Z,107.30
2019-01-26T07:49:49.863Z,94.00
2019-01-26T07:50:49.850Z,96.00
2019-01-26T07:51:49.840Z,109.20
2019-01-26T07:52:49.850Z,101.10
2019-01-26T07:53:49.850Z,103.80
2019-01-26T07:54:49.807Z,82.10
2019-01-26T07:55:49.837Z,96.00
2019-01-26T07:56:49.787Z,103.90
2019-01-26T07:57:49.774Z,95.90
2019-01-26T07:58:49.791Z,88.10
2019-01-26T07:59:49.768Z,91.30
2019-01-26T08:00:49.742Z,94.10
2019-01-26T08:01:49.730Z,83.00
2019-01-26T08:02:49.719Z,74.60
2019-01-26T08:03:49.735Z,86.70
2019-01-26T08:04:49.700Z,73.80
2019-01-26T08:05:49.687Z,73.80
2019-01-26T08:06:49.681Z,77.20
2019-01-26T08:07:49.669Z,72.00
2019-01-26T08:08:49.677Z,74.70
2019-01-26T08:09:49.641Z,77.80
2019-01-26T08:10:49.630Z,72.70
2019-01-26T08:11:49.619Z,62.00
2019-01-26T08:12:49.613Z,61.20
2019-01-26T08:13:49.637Z,76.30
2019-01-26T08:14:49.587Z,65.30
2019-01-26T08:15:49.576Z,71.60
2019-01-26T08:16:49.567Z,60.70
2019-01-26T08:17:49.553Z,62.30
2019-01-26T08:18:49.569Z,63.10
2019-01-26T08:19:49.537Z,68.00
2019-01-26T08:20:49.521Z,56.80
2019-01-26T08:21:49.511Z,57.40
2019-01-26T08:22:49.499Z,65.80
2019-01-26T08:23:49.511Z,59.50
2019-01-26T08:24:49.478Z,60.40
2019-01-26T08:25:49.478Z,71.20
2019-01-26T08:26:49.455Z,59.50
2019-01-26T08:27:49.443Z,50.70
2019-01-26T08:28:49.456Z,57.50
2019-01-26T08:29:49.425Z,55.90
2019-01-26T08:30:49.409Z,54.40
2019-01-26T08:31:49.411Z,54.80
2019-01-26T08:32:49.388Z,56.80
2019-01-26T08:33:49.415Z,57.50
2019-01-26T08:34:49.365Z,57.60
2019-01-26T08:35:49.356Z,58.50
2019-01-26T08:36:49.343Z,53.90
2019-01-26T08:37:49.341Z,50.20
2019-01-26T08:38:49.326Z,48.00
2019-01-26T08:39:49.340Z,50.00
2019-01-26T08:40:49.306Z,50.10
2019-01-26T08:41:49.289Z,50.50
2019-01-26T08:42:49.278Z,43.20
2019-01-26T08:43:49.266Z,42.40
2019-01-26T08:44:49.283Z,45.40
2019-01-26T08:45:49.245Z,41.40
2019-01-26T08:46:49.242Z,43.80
2019-01-26T08:47:49.223Z,45.80
2019-01-26T08:48:49.214Z,48.30
2019-01-26T08:49:49.223Z,45.80
2019-01-26T08:50:49.191Z,40.20
2019-01-26T08:51:49.179Z,41.50
2019-01-26T08:52:49.174Z,39.50
2019-01-26T08:53:49.157Z,43.50
2019-01-26T08:54:49.169Z,44.80
2019-01-26T08:55:49.135Z,45.00
2019-01-26T08:56:49.131Z,44.50
2019-01-26T08:57:49.115Z,41.40
2019-01-26T08:58:49.110Z,46.70
2019-01-26T08:59:49.116Z,42.50
2019-01-26T09:00:49.079Z,44.20
2019-01-26T09:01:49.070Z,45.40
2019-01-26T09:02:49.059Z,43.50
2019-01-26T09:03:49.048Z,47.90
2019-01-26T09:04:49.068Z,44.70
2019-01-26T09:05:49.026Z,44.00
2019-01-26T09:06:49.014Z,46.00
2019-01-26T09:07:49.004Z,43.70
2019-01-26T09:08:48.992Z,39.80
2019-01-26T09:09:49.005Z,38.70
2019-01-26T09:10:48.983Z,46.80
2019-01-26T09:11:48.959Z,47.30
2019-01-26T09:12:48.951Z,42.90
2019-01-26T09:13:48.940Z,43.50
2019-01-26T09:14:48.956Z,43.10
2019-01-26T09:15:48.918Z,45.90
2019-01-26T09:16:48.906Z,44.10
2019-01-26T09:17:48.897Z,41.10
2019-01-26T09:18:48.883Z,44.00
2019-01-26T09:19:48.896Z,46.80
2019-01-26T09:20:48.861Z,38.40
2019-01-26T09:21:48.850Z,43.60
2019-01-26T09:22:48.864Z,41.30
2019-01-26T09:23:48.829Z,39.20
2019-01-26T09:24:48.843Z,34.50
2019-01-26T09:25:48.807Z,36.70
2019-01-26T09:26:48.799Z,42.20
2019-01-26T09:27:48.785Z,43.90
2019-01-26T09:28:48.777Z,42.80
2019-01-26T09:29:48.794Z,42.50
2019-01-26T09:30:48.754Z,40.00
2019-01-26T09:31:48.744Z,38.30
2019-01-26T09:32:48.732Z,36.90
2019-01-26T09:33:48.724Z,33.80
2019-01-26T09:34:48.737Z,31.50
2019-01-26T09:35:48.703Z,31.80
2019-01-26T09:36:48.701Z,33.20
2019-01-26T09:37:48.677Z,30.70
2019-01-26T09:38:48.669Z,33.80
2019-01-26T09:39:48.681Z,35.20
2019-01-26T09:40:48.643Z,29.90
2019-01-26T09:41:48.634Z,28.30
2019-01-26T09:42:48.633Z,26.60
2019-01-26T09:43:48.609Z,20.40
2019-01-26T09:44:48.622Z,24.60
2019-01-26T09:45:48.589Z,22.60
2019-01-26T09:46:48.580Z,19.80
2019-01-26T09:47:48.565Z,20.50
2019-01-26T09:48:48.564Z,20.80
2019-01-26T09:49:48.568Z,23.70
2019-01-26T09:50:48.544Z,21.30
2019-01-26T09:51:48.522Z,24.00
2019-01-26T09:52:48.511Z,24.60
2019-01-26T09:53:48.500Z,26.90
2019-01-26T09:54:48.525Z,22.30
2019-01-26T09:55:48.484Z,21.90
2019-01-26T09:56:48.467Z,22.70
2019-01-26T09:57:48.455Z,21.70
2019-01-26T09:58:48.443Z,21.20
2019-01-26T09:59:48.457Z,21.50
2019-01-26T10:00:48.454Z,20.70
2019-01-26T10:01:48.412Z,22.20
2019-01-26T10:02:48.400Z,22.00
2019-01-26T10:03:49.510Z,21.80
2019-01-26T10:04:48.404Z,22.10
2019-01-26T10:05:48.373Z,18.90
2019-01-26T10:06:48.371Z,19.80
2019-01-26T10:07:48.347Z,22.00
2019-01-26T10:08:48.334Z,20.60
2019-01-26T10:09:48.348Z,23.80
2019-01-26T10:10:48.319Z,21.20
2019-01-26T10:11:48.301Z,21.10
2019-01-26T10:12:48.300Z,22.60
2019-01-26T10:13:48.316Z,18.90
2019-01-26T10:14:48.297Z,22.20
2019-01-26T10:15:48.260Z,21.20
2019-01-26T10:16:48.248Z,17.20
2019-01-26T10:17:48.235Z,21.00
2019-01-26T10:18:53.505Z,20.00
2019-01-26T10:19:49.239Z,21.00
2019-01-26T10:20:48.209Z,24.50
2019-01-26T10:21:48.199Z,21.50
2019-01-26T10:22:48.181Z,22.30
2019-01-26T10:23:48.170Z,19.80
2019-01-26T10:24:48.159Z,21.20
2019-01-26T10:25:48.805Z,19.20
2019-01-26T10:26:48.142Z,19.80
2019-01-26T10:27:48.136Z,21.00
2019-01-26T10:28:48.129Z,20.00
2019-01-26T10:29:48.103Z,18.50
2019-01-26T10:30:48.121Z,20.10
2019-01-26T10:31:48.082Z,20.50
2019-01-26T10:32:48.074Z,19.10
2019-01-26T10:33:48.068Z,18.10
2019-01-26T10:34:48.084Z,18.90
2019-01-26T10:35:48.063Z,16.60
2019-01-26T10:36:48.030Z,19.00
2019-01-26T10:37:48.018Z,17.70
2019-01-26T10:38:48.007Z,18.80
2019-01-26T10:39:47.996Z,18.20
2019-01-26T10:40:48.012Z,20.00
2019-01-26T10:41:47.985Z,19.10
2019-01-26T10:42:47.989Z,18.70
2019-01-26T10:43:47.964Z,17.50
2019-01-26T10:44:49.258Z,17.10
2019-01-26T10:45:47.955Z,16.70
2019-01-26T10:46:47.919Z,18.80
2019-01-26T10:47:47.909Z,20.40
2019-01-26T10:48:47.898Z,18.20
2019-01-26T10:49:47.892Z,18.50
2019-01-26T10:50:47.900Z,17.20
2019-01-26T10:51:47.866Z,17.10
2019-01-26T10:52:47.855Z,17.10
2019-01-26T10:53:47.844Z,18.20
2019-01-26T10:54:47.833Z,17.20
2019-01-26T10:55:47.849Z,16.00
2019-01-26T10:56:47.825Z,19.40
2019-01-26T10:57:47.800Z,19.00
2019-01-26T10:58:47.789Z,18.60
2019-01-26T10:59:47.782Z,18.10
2019-01-26T11:00:47.790Z,16.80
2019-01-26T11:01:47.756Z,18.70
2019-01-26T11:02:47.750Z,19.40
2019-01-26T11:03:47.751Z,21.80
2019-01-26T11:04:47.724Z,18.80
2019-01-26T11:05:47.737Z,18.70
2019-01-26T11:06:47.702Z,20.50
2019-01-26T11:07:47.692Z,18.10
2019-01-26T11:08:47.679Z,18.90
2019-01-26T11:09:47.672Z,18.60
2019-01-26T11:10:47.688Z,19.80
2019-01-26T11:11:47.654Z,19.70
2019-01-26T11:12:47.646Z,20.30
2019-01-26T11:13:47.626Z,20.10
2019-01-26T11:14:47.617Z,18.10
2019-01-26T11:15:47.630Z,21.10
2019-01-26T11:16:47.594Z,20.40
2019-01-26T11:17:47.583Z,17.40
2019-01-26T11:18:47.584Z,21.50
2019-01-26T11:19:47.585Z,21.70
2019-01-26T11:20:47.574Z,20.70
2019-01-26T11:21:47.540Z,23.00
2019-01-26T11:22:47.530Z,22.70
2019-01-26T11:23:47.519Z,23.40
2019-01-26T11:24:47.507Z,20.40
2019-01-26T11:25:47.541Z,20.80
2019-01-26T11:26:49.461Z,21.20
2019-01-26T11:27:47.494Z,22.20
2019-01-26T11:28:47.465Z,22.00
2019-01-26T11:29:47.453Z,19.60
2019-01-26T11:30:47.466Z,21.40
2019-01-26T11:31:47.432Z,22.40
2019-01-26T11:32:47.419Z,24.10
2019-01-26T11:33:47.413Z,22.70
2019-01-26T11:34:47.402Z,22.60
2019-01-26T11:35:47.427Z,22.40
2019-01-26T11:36:47.376Z,20.60
2019-01-26T11:37:47.366Z,22.10
2019-01-26T11:38:47.354Z,21.20
2019-01-26T11:39:47.345Z,22.00
2019-01-26T11:40:47.356Z,22.50
2019-01-26T11:41:47.338Z,22.70
2019-01-26T11:42:47.311Z,21.40
2019-01-26T11:43:47.308Z,21.20
2019-01-26T11:44:47.597Z,22.20
2019-01-26T11:45:47.303Z,21.10
2019-01-26T11:46:47.267Z,22.40
2019-01-26T11:47:47.278Z,23.70
2019-01-26T11:48:47.245Z,19.90
2019-01-26T11:49:47.245Z,23.80
2019-01-26T11:50:47.248Z,22.70
2019-01-26T11:51:47.220Z,21.40
2019-01-26T11:52:47.201Z,21.10
2019-01-26T11:53:47.215Z,22.90
2019-01-26T11:54:47.182Z,23.80
2019-01-26T11:55:47.203Z,20.40
2019-01-26T11:56:47.158Z,21.90
2019-01-26T11:57:47.148Z,20.60
2019-01-26T11:58:47.137Z,23.50
2019-01-26T11:59:47.124Z,20.40
2019-01-26T12:00:47.161Z,21.90
2019-01-26T12:01:47.108Z,22.50
2019-01-26T12:02:47.116Z,22.70
2019-01-26T12:03:47.094Z,24.20
2019-01-26T12:04:47.089Z,22.50
2019-01-26T12:05:47.060Z,23.70
2019-01-26T12:06:47.078Z,22.80
2019-01-26T12:07:47.042Z,21.90
2019-01-26T12:08:47.032Z,22.40
2019-01-26T12:09:47.017Z,25.50
2019-01-26T12:10:47.013Z,22.10
2019-01-26T12:11:47.050Z,22.00
2019-01-26T12:12:46.984Z,22.90
2019-01-26T12:13:46.972Z,22.40
2019-01-26T12:14:46.969Z,23.80
2019-01-26T12:15:46.951Z,24.20
2019-01-26T12:16:46.992Z,19.10
2019-01-26T12:17:46.932Z,23.70
2019-01-26T12:18:46.919Z,23.30
2019-01-26T12:19:46.907Z,24.40
2019-01-26T12:20:46.894Z,24.10
2019-01-26T12:21:46.931Z,21.20
2019-01-26T12:22:46.894Z,22.90
2019-01-26T12:23:46.868Z,23.40
2019-01-26T12:24:46.851Z,25.00
2019-01-26T12:25:46.844Z,24.60
2019-01-26T12:26:46.853Z,23.00
2019-01-26T12:27:46.817Z,23.30
2019-01-26T12:28:46.821Z,22.70
2019-01-26T12:29:46.798Z,22.30
2019-01-26T12:30:46.785Z,22.50
2019-01-26T12:31:46.799Z,25.40
2019-01-26T12:32:46.766Z,25.30
2019-01-26T12:33:46.753Z,25.20
2019-01-26T12:34:46.759Z,24.80
2019-01-26T12:35:46.732Z,24.10
2019-01-26T12:36:46.746Z,24.80
2019-01-26T12:37:46.710Z,21.70
2019-01-26T12:38:46.699Z,23.70
2019-01-26T12:39:46.715Z,26.00
2019-01-26T12:40:46.683Z,22.40
2019-01-26T12:41:46.692Z,21.70
2019-01-26T12:42:46.693Z,22.40
2019-01-26T12:43:46.668Z,19.40
2019-01-26T12:44:46.646Z,21.80
2019-01-26T12:45:46.670Z,20.70
2019-01-26T12:46:46.667Z,22.20